sensor_id;sensor_type;location;lat;lon;timestamp;P1;durP1;ratioP1;P2;durP2;ratioP2
74551;SDS011;63025;55.472;38.432;2024-03-29T00:01:14;14.98;;;6.45;;
74551;SDS011;63025;55.472;38.432;2024-03-29T00:03:40;12.82;;;6.18;;
74551;SDS011;63025;55.472;38.432;2024-03-29T00:06:07;15.23;;;6.53;;
74551;SDS011;63025;55.472;38.432;2024-03-29T00:08:32;14.00;;;6.47;;
74551;SDS011;63025;55.472;38.432;2024-03-29T00:10:58;14.57;;;6.47;;
74551;SDS011;63025;55.472;38.432;2024-03-29T00:13:24;11.50;;;5.85;;
74551;SDS011;63025;55.472;38.432;2024-03-29T00:15:50;13.88;;;6.53;;
74551;SDS011;63025;55.472;38.432;2024-03-29T00:18:16;19.10;;;6.90;;
74551;SDS011;63025;55.472;38.432;2024-03-29T00:20:42;14.15;;;6.22;;
74551;SDS011;63025;55.472;38.432;2024-03-29T00:23:08;13.52;;;5.88;;
74551;SDS011;63025;55.472;38.432;2024-03-29T00:25:33;12.05;;;6.22;;
74551;SDS011;63025;55.472;38.432;2024-03-29T00:27:59;11.65;;;6.03;;
74551;SDS011;63025;55.472;38.432;2024-03-29T00:30:26;14.30;;;6.32;;
74551;SDS011;63025;55.472;38.432;2024-03-29T00:32:52;12.88;;;6.30;;
74551;SDS011;63025;55.472;38.432;2024-03-29T00:35:18;13.23;;;5.68;;
74551;SDS011;63025;55.472;38.432;2024-03-29T00:37:45;13.10;;;6.38;;
74551;SDS011;63025;55.472;38.432;2024-03-29T00:40:11;14.98;;;6.50;;
74551;SDS011;63025;55.472;38.432;2024-03-29T00:42:37;11.70;;;6.00;;
74551;SDS011;63025;55.472;38.432;2024-03-29T00:45:03;12.13;;;5.82;;
74551;SDS011;63025;55.472;38.432;2024-03-29T00:47:30;12.23;;;5.88;;
74551;SDS011;63025;55.472;38.432;2024-03-29T00:49:56;14.60;;;6.30;;
74551;SDS011;63025;55.472;38.432;2024-03-29T00:52:21;13.43;;;6.13;;
74551;SDS011;63025;55.472;38.432;2024-03-29T00:54:47;12.63;;;6.47;;
74551;SDS011;63025;55.472;38.432;2024-03-29T00:57:13;10.07;;;5.70;;
74551;SDS011;63025;55.472;38.432;2024-03-29T00:59:41;13.35;;;6.20;;
74551;SDS011;63025;55.472;38.432;2024-03-29T01:02:09;12.15;;;6.20;;
74551;SDS011;63025;55.472;38.432;2024-03-29T01:04:35;13.82;;;6.60;;
74551;SDS011;63025;55.472;38.432;2024-03-29T01:07:01;12.00;;;6.00;;
74551;SDS011;63025;55.472;38.432;2024-03-29T01:09:26;11.88;;;5.90;;
74551;SDS011;63025;55.472;38.432;2024-03-29T01:11:52;12.10;;;5.97;;
74551;SDS011;63025;55.472;38.432;2024-03-29T01:14:19;15.25;;;6.28;;
74551;SDS011;63025;55.472;38.432;2024-03-29T01:16:45;12.43;;;5.57;;
74551;SDS011;63025;55.472;38.432;2024-03-29T01:19:11;11.57;;;5.53;;
74551;SDS011;63025;55.472;38.432;2024-03-29T01:21:36;14.65;;;6.10;;
74551;SDS011;63025;55.472;38.432;2024-03-29T01:24:03;14.68;;;6.35;;
74551;SDS011;63025;55.472;38.432;2024-03-29T01:26:30;12.15;;;6.50;;
74551;SDS011;63025;55.472;38.432;2024-03-29T01:28:56;12.00;;;5.97;;
74551;SDS011;63025;55.472;38.432;2024-03-29T01:31:22;14.23;;;6.47;;
74551;SDS011;63025;55.472;38.432;2024-03-29T01:33:48;13.75;;;6.15;;
74551;SDS011;63025;55.472;38.432;2024-03-29T01:36:14;12.75;;;6.65;;
74551;SDS011;63025;55.472;38.432;2024-03-29T01:38:40;13.73;;;6.15;;
74551;SDS011;63025;55.472;38.432;2024-03-29T01:41:06;11.73;;;6.35;;
74551;SDS011;63025;55.472;38.432;2024-03-29T01:43:32;15.23;;;6.13;;
74551;SDS011;63025;55.472;38.432;2024-03-29T01:45:58;12.40;;;6.10;;
74551;SDS011;63025;55.472;38.432;2024-03-29T01:48:24;12.48;;;6.35;;
74551;SDS011;63025;55.472;38.432;2024-03-29T01:50:53;12.15;;;6.05;;
74551;SDS011;63025;55.472;38.432;2024-03-29T01:53:21;11.60;;;6.20;;
74551;SDS011;63025;55.472;38.432;2024-03-29T01:55:47;13.30;;;6.40;;
74551;SDS011;63025;55.472;38.432;2024-03-29T01:58:13;13.15;;;5.93;;
74551;SDS011;63025;55.472;38.432;2024-03-29T02:00:51;16.38;;;6.10;;
74551;SDS011;63025;55.472;38.432;2024-03-29T02:03:20;11.88;;;5.88;;
74551;SDS011;63025;55.472;38.432;2024-03-29T02:05:47;13.13;;;5.65;;
74551;SDS011;63025;55.472;38.432;2024-03-29T02:08:14;12.82;;;5.95;;
74551;SDS011;63025;55.472;38.432;2024-03-29T02:10:41;12.82;;;6.30;;
74551;SDS011;63025;55.472;38.432;2024-03-29T02:13:07;14.15;;;5.90;;
74551;SDS011;63025;55.472;38.432;2024-03-29T02:15:33;10.88;;;5.68;;
74551;SDS011;63025;55.472;38.432;2024-03-29T02:17:59;18.70;;;6.25;;
74551;SDS011;63025;55.472;38.432;2024-03-29T02:20:25;11.77;;;5.63;;
74551;SDS011;63025;55.472;38.432;2024-03-29T02:23:00;15.65;;;5.78;;
74551;SDS011;63025;55.472;38.432;2024-03-29T02:25:31;11.88;;;5.45;;
74551;SDS011;63025;55.472;38.432;2024-03-29T02:27:57;13.40;;;5.95;;
74551;SDS011;63025;55.472;38.432;2024-03-29T02:30:25;12.73;;;5.88;;
74551;SDS011;63025;55.472;38.432;2024-03-29T02:32:51;11.93;;;5.63;;
74551;SDS011;63025;55.472;38.432;2024-03-29T02:35:17;14.70;;;6.28;;
74551;SDS011;63025;55.472;38.432;2024-03-29T02:37:42;14.40;;;5.97;;
74551;SDS011;63025;55.472;38.432;2024-03-29T02:40:08;15.98;;;5.80;;
74551;SDS011;63025;55.472;38.432;2024-03-29T02:42:34;13.20;;;6.07;;
74551;SDS011;63025;55.472;38.432;2024-03-29T02:45:01;12.63;;;6.10;;
74551;SDS011;63025;55.472;38.432;2024-03-29T02:47:29;10.48;;;5.63;;
74551;SDS011;63025;55.472;38.432;2024-03-29T02:49:55;20.08;;;6.68;;
74551;SDS011;63025;55.472;38.432;2024-03-29T02:52:21;16.42;;;6.20;;
74551;SDS011;63025;55.472;38.432;2024-03-29T02:54:47;11.38;;;5.78;;
74551;SDS011;63025;55.472;38.432;2024-03-29T02:57:13;13.90;;;6.13;;
74551;SDS011;63025;55.472;38.432;2024-03-29T02:59:39;11.82;;;6.22;;
74551;SDS011;63025;55.472;38.432;2024-03-29T03:02:05;13.38;;;6.07;;
74551;SDS011;63025;55.472;38.432;2024-03-29T03:04:31;9.85;;;5.72;;
74551;SDS011;63025;55.472;38.432;2024-03-29T03:06:57;10.68;;;5.55;;
74551;SDS011;63025;55.472;38.432;2024-03-29T03:09:43;12.38;;;5.30;;
74551;SDS011;63025;55.472;38.432;2024-03-29T03:12:29;12.18;;;6.03;;
74551;SDS011;63025;55.472;38.432;2024-03-29T03:14:56;12.98;;;5.88;;
74551;SDS011;63025;55.472;38.432;2024-03-29T03:17:22;13.63;;;5.50;;
74551;SDS011;63025;55.472;38.432;2024-03-29T03:19:50;10.38;;;5.07;;
74551;SDS011;63025;55.472;38.432;2024-03-29T03:22:17;10.30;;;5.65;;
74551;SDS011;63025;55.472;38.432;2024-03-29T03:24:43;13.90;;;5.30;;
74551;SDS011;63025;55.472;38.432;2024-03-29T03:27:09;11.98;;;5.30;;
74551;SDS011;63025;55.472;38.432;2024-03-29T03:29:35;10.50;;;5.43;;
74551;SDS011;63025;55.472;38.432;2024-03-29T03:32:01;13.52;;;5.32;;
74551;SDS011;63025;55.472;38.432;2024-03-29T03:34:27;11.52;;;5.43;;
74551;SDS011;63025;55.472;38.432;2024-03-29T03:36:53;11.82;;;5.63;;
74551;SDS011;63025;55.472;38.432;2024-03-29T03:39:19;11.63;;;5.22;;
74551;SDS011;63025;55.472;38.432;2024-03-29T03:41:44;10.63;;;5.10;;
74551;SDS011;63025;55.472;38.432;2024-03-29T03:44:10;12.95;;;5.00;;
74551;SDS011;63025;55.472;38.432;2024-03-29T03:46:36;9.25;;;4.60;;
74551;SDS011;63025;55.472;38.432;2024-03-29T03:49:02;9.20;;;4.78;;
74551;SDS011;63025;55.472;38.432;2024-03-29T03:51:28;9.07;;;4.90;;
74551;SDS011;63025;55.472;38.432;2024-03-29T03:53:53;13.40;;;5.25;;
74551;SDS011;63025;55.472;38.432;2024-03-29T03:56:19;10.38;;;5.10;;
74551;SDS011;63025;55.472;38.432;2024-03-29T03:58:45;12.18;;;5.60;;
74551;SDS011;63025;55.472;38.432;2024-03-29T04:01:11;11.05;;;4.22;;
74551;SDS011;63025;55.472;38.432;2024-03-29T04:03:37;12.85;;;5.45;;
74551;SDS011;63025;55.472;38.432;2024-03-29T04:06:03;11.13;;;4.82;;
74551;SDS011;63025;55.472;38.432;2024-03-29T04:08:29;9.57;;;4.72;;
74551;SDS011;63025;55.472;38.432;2024-03-29T04:10:55;12.95;;;5.40;;
74551;SDS011;63025;55.472;38.432;2024-03-29T04:13:21;12.63;;;5.10;;
74551;SDS011;63025;55.472;38.432;2024-03-29T04:15:48;15.63;;;5.68;;
74551;SDS011;63025;55.472;38.432;2024-03-29T04:18:13;10.80;;;4.70;;
74551;SDS011;63025;55.472;38.432;2024-03-29T04:20:39;12.18;;;4.72;;
74551;SDS011;63025;55.472;38.432;2024-03-29T04:23:05;9.20;;;4.85;;
74551;SDS011;63025;55.472;38.432;2024-03-29T04:25:32;13.32;;;4.85;;
74551;SDS011;63025;55.472;38.432;2024-03-29T04:28:00;9.05;;;4.20;;
74551;SDS011;63025;55.472;38.432;2024-03-29T04:30:26;10.80;;;4.75;;
74551;SDS011;63025;55.472;38.432;2024-03-29T04:32:52;12.82;;;4.80;;
74551;SDS011;63025;55.472;38.432;2024-03-29T04:35:18;8.93;;;4.25;;
74551;SDS011;63025;55.472;38.432;2024-03-29T04:37:43;9.48;;;4.43;;
74551;SDS011;63025;55.472;38.432;2024-03-29T04:40:09;10.05;;;4.63;;
74551;SDS011;63025;55.472;38.432;2024-03-29T04:42:35;8.18;;;4.55;;
74551;SDS011;63025;55.472;38.432;2024-03-29T04:45:01;9.25;;;4.90;;
74551;SDS011;63025;55.472;38.432;2024-03-29T04:47:30;8.88;;;4.63;;
74551;SDS011;63025;55.472;38.432;2024-03-29T04:49:55;14.18;;;4.90;;
74551;SDS011;63025;55.472;38.432;2024-03-29T04:52:21;10.38;;;4.70;;
74551;SDS011;63025;55.472;38.432;2024-03-29T04:54:49;9.32;;;4.45;;
74551;SDS011;63025;55.472;38.432;2024-03-29T04:57:15;9.95;;;4.45;;
74551;SDS011;63025;55.472;38.432;2024-03-29T04:59:41;11.52;;;4.25;;
74551;SDS011;63025;55.472;38.432;2024-03-29T05:02:07;10.07;;;4.35;;
74551;SDS011;63025;55.472;38.432;2024-03-29T05:04:32;11.23;;;5.03;;
74551;SDS011;63025;55.472;38.432;2024-03-29T05:06:58;10.63;;;4.30;;
74551;SDS011;63025;55.472;38.432;2024-03-29T05:09:25;11.30;;;5.03;;
74551;SDS011;63025;55.472;38.432;2024-03-29T05:11:51;10.32;;;4.85;;
74551;SDS011;63025;55.472;38.432;2024-03-29T05:14:19;13.90;;;5.15;;
74551;SDS011;63025;55.472;38.432;2024-03-29T05:16:46;10.50;;;5.97;;
74551;SDS011;63025;55.472;38.432;2024-03-29T05:19:13;18.73;;;6.10;;
74551;SDS011;63025;55.472;38.432;2024-03-29T05:21:40;16.02;;;5.63;;
74551;SDS011;63025;55.472;38.432;2024-03-29T05:24:07;12.82;;;6.00;;
74551;SDS011;63025;55.472;38.432;2024-03-29T05:26:33;12.10;;;6.20;;
74551;SDS011;63025;55.472;38.432;2024-03-29T05:28:59;12.73;;;6.45;;
74551;SDS011;63025;55.472;38.432;2024-03-29T05:31:25;13.35;;;5.90;;
74551;SDS011;63025;55.472;38.432;2024-03-29T05:33:52;12.77;;;5.53;;
74551;SDS011;63025;55.472;38.432;2024-03-29T05:36:18;15.57;;;5.90;;
74551;SDS011;63025;55.472;38.432;2024-03-29T05:38:44;10.07;;;5.13;;
74551;SDS011;63025;55.472;38.432;2024-03-29T05:41:11;8.82;;;5.20;;
74551;SDS011;63025;55.472;38.432;2024-03-29T05:43:40;14.18;;;5.15;;
74551;SDS011;63025;55.472;38.432;2024-03-29T05:46:06;11.70;;;5.28;;
74551;SDS011;63025;55.472;38.432;2024-03-29T05:48:32;10.23;;;5.10;;
74551;SDS011;63025;55.472;38.432;2024-03-29T05:50:58;10.30;;;5.07;;
74551;SDS011;63025;55.472;38.432;2024-03-29T05:53:24;11.95;;;5.45;;
74551;SDS011;63025;55.472;38.432;2024-03-29T05:55:50;9.70;;;5.78;;
74551;SDS011;63025;55.472;38.432;2024-03-29T05:58:16;10.07;;;5.90;;
74551;SDS011;63025;55.472;38.432;2024-03-29T06:00:46;12.82;;;6.20;;
74551;SDS011;63025;55.472;38.432;2024-03-29T06:03:12;14.05;;;6.07;;
74551;SDS011;63025;55.472;38.432;2024-03-29T06:05:41;14.05;;;6.22;;
74551;SDS011;63025;55.472;38.432;2024-03-29T06:08:07;10.85;;;5.70;;
74551;SDS011;63025;55.472;38.432;2024-03-29T06:10:33;11.80;;;5.95;;
74551;SDS011;63025;55.472;38.432;2024-03-29T06:12:59;11.25;;;6.18;;
74551;SDS011;63025;55.472;38.432;2024-03-29T06:15:32;11.13;;;5.28;;
74551;SDS011;63025;55.472;38.432;2024-03-29T06:18:17;11.35;;;5.40;;
74551;SDS011;63025;55.472;38.432;2024-03-29T06:20:47;10.15;;;5.07;;
74551;SDS011;63025;55.472;38.432;2024-03-29T06:23:14;12.35;;;4.78;;
74551;SDS011;63025;55.472;38.432;2024-03-29T06:25:40;10.13;;;4.95;;
74551;SDS011;63025;55.472;38.432;2024-03-29T06:28:06;9.80;;;5.07;;
74551;SDS011;63025;55.472;38.432;2024-03-29T06:30:32;10.73;;;5.22;;
74551;SDS011;63025;55.472;38.432;2024-03-29T06:32:58;8.43;;;4.80;;
74551;SDS011;63025;55.472;38.432;2024-03-29T06:35:26;9.45;;;5.38;;
74551;SDS011;63025;55.472;38.432;2024-03-29T06:37:52;7.60;;;4.78;;
74551;SDS011;63025;55.472;38.432;2024-03-29T06:40:18;10.02;;;5.13;;
74551;SDS011;63025;55.472;38.432;2024-03-29T06:42:44;9.07;;;5.13;;
74551;SDS011;63025;55.472;38.432;2024-03-29T06:45:10;10.45;;;5.28;;
74551;SDS011;63025;55.472;38.432;2024-03-29T06:47:35;11.85;;;5.25;;
74551;SDS011;63025;55.472;38.432;2024-03-29T06:50:01;8.70;;;4.80;;
74551;SDS011;63025;55.472;38.432;2024-03-29T06:52:29;9.32;;;4.55;;
74551;SDS011;63025;55.472;38.432;2024-03-29T06:54:55;10.18;;;5.10;;
74551;SDS011;63025;55.472;38.432;2024-03-29T06:57:21;10.43;;;4.82;;
74551;SDS011;63025;55.472;38.432;2024-03-29T06:59:51;11.52;;;5.00;;
74551;SDS011;63025;55.472;38.432;2024-03-29T07:02:17;11.90;;;4.70;;
74551;SDS011;63025;55.472;38.432;2024-03-29T07:04:42;10.45;;;4.90;;
74551;SDS011;63025;55.472;38.432;2024-03-29T07:07:08;7.45;;;4.45;;
74551;SDS011;63025;55.472;38.432;2024-03-29T07:09:35;8.93;;;4.90;;
74551;SDS011;63025;55.472;38.432;2024-03-29T07:12:01;13.43;;;5.18;;
74551;SDS011;63025;55.472;38.432;2024-03-29T07:14:27;9.85;;;5.65;;
74551;SDS011;63025;55.472;38.432;2024-03-29T07:16:53;10.32;;;5.50;;
74551;SDS011;63025;55.472;38.432;2024-03-29T07:19:20;10.50;;;5.38;;
74551;SDS011;63025;55.472;38.432;2024-03-29T07:21:47;10.00;;;5.20;;
74551;SDS011;63025;55.472;38.432;2024-03-29T07:24:13;11.77;;;5.32;;
74551;SDS011;63025;55.472;38.432;2024-03-29T07:26:39;10.93;;;5.47;;
74551;SDS011;63025;55.472;38.432;2024-03-29T07:29:05;11.93;;;5.68;;
74551;SDS011;63025;55.472;38.432;2024-03-29T07:31:32;9.90;;;5.60;;
74551;SDS011;63025;55.472;38.432;2024-03-29T07:33:59;12.38;;;6.00;;
74551;SDS011;63025;55.472;38.432;2024-03-29T07:36:25;10.75;;;5.75;;
74551;SDS011;63025;55.472;38.432;2024-03-29T07:38:57;10.88;;;5.95;;
74551;SDS011;63025;55.472;38.432;2024-03-29T07:41:25;14.00;;;5.43;;
74551;SDS011;63025;55.472;38.432;2024-03-29T07:43:52;14.43;;;5.78;;
74551;SDS011;63025;55.472;38.432;2024-03-29T07:46:22;12.23;;;5.30;;
74551;SDS011;63025;55.472;38.432;2024-03-29T07:48:49;13.20;;;5.63;;
74551;SDS011;63025;55.472;38.432;2024-03-29T07:51:15;12.90;;;6.30;;
74551;SDS011;63025;55.472;38.432;2024-03-29T07:53:41;12.52;;;5.90;;
74551;SDS011;63025;55.472;38.432;2024-03-29T07:56:07;12.00;;;5.93;;
74551;SDS011;63025;55.472;38.432;2024-03-29T07:58:33;10.85;;;5.88;;
74551;SDS011;63025;55.472;38.432;2024-03-29T08:00:59;11.32;;;6.28;;
74551;SDS011;63025;55.472;38.432;2024-03-29T08:03:24;12.40;;;6.13;;
74551;SDS011;63025;55.472;38.432;2024-03-29T08:05:57;12.32;;;6.00;;
74551;SDS011;63025;55.472;38.432;2024-03-29T08:08:30;10.80;;;5.70;;
74551;SDS011;63025;55.472;38.432;2024-03-29T08:10:56;9.70;;;5.55;;
74551;SDS011;63025;55.472;38.432;2024-03-29T08:13:22;14.10;;;6.10;;
74551;SDS011;63025;55.472;38.432;2024-03-29T08:15:55;12.43;;;6.18;;
74551;SDS011;63025;55.472;38.432;2024-03-29T08:18:25;10.50;;;5.68;;
74551;SDS011;63025;55.472;38.432;2024-03-29T08:20:51;11.18;;;6.40;;
74551;SDS011;63025;55.472;38.432;2024-03-29T08:23:17;13.48;;;6.38;;
74551;SDS011;63025;55.472;38.432;2024-03-29T08:25:43;13.60;;;6.40;;
74551;SDS011;63025;55.472;38.432;2024-03-29T08:28:09;11.63;;;6.10;;
74551;SDS011;63025;55.472;38.432;2024-03-29T08:30:36;11.80;;;6.65;;
74551;SDS011;63025;55.472;38.432;2024-03-29T08:33:02;12.30;;;6.18;;
74551;SDS011;63025;55.472;38.432;2024-03-29T08:35:32;12.60;;;6.63;;
74551;SDS011;63025;55.472;38.432;2024-03-29T08:37:59;11.40;;;6.15;;
74551;SDS011;63025;55.472;38.432;2024-03-29T08:40:27;11.88;;;6.32;;
74551;SDS011;63025;55.472;38.432;2024-03-29T08:42:59;13.55;;;7.03;;
74551;SDS011;63025;55.472;38.432;2024-03-29T08:45:25;11.30;;;6.70;;
74551;SDS011;63025;55.472;38.432;2024-03-29T08:47:51;13.18;;;6.55;;
74551;SDS011;63025;55.472;38.432;2024-03-29T08:50:17;12.05;;;6.78;;
74551;SDS011;63025;55.472;38.432;2024-03-29T08:52:43;12.57;;;6.07;;
74551;SDS011;63025;55.472;38.432;2024-03-29T08:55:10;13.00;;;6.75;;
74551;SDS011;63025;55.472;38.432;2024-03-29T08:57:36;14.82;;;6.97;;
74551;SDS011;63025;55.472;38.432;2024-03-29T09:00:01;15.68;;;7.10;;
74551;SDS011;63025;55.472;38.432;2024-03-29T09:02:30;14.05;;;7.57;;
74551;SDS011;63025;55.472;38.432;2024-03-29T09:04:56;13.77;;;6.93;;
74551;SDS011;63025;55.472;38.432;2024-03-29T09:07:23;17.20;;;6.70;;
74551;SDS011;63025;55.472;38.432;2024-03-29T09:09:49;9.73;;;6.68;;
74551;SDS011;63025;55.472;38.432;2024-03-29T09:12:15;15.85;;;7.00;;
74551;SDS011;63025;55.472;38.432;2024-03-29T09:14:44;12.82;;;6.93;;
74551;SDS011;63025;55.472;38.432;2024-03-29T09:17:13;12.70;;;6.97;;
74551;SDS011;63025;55.472;38.432;2024-03-29T09:19:39;14.77;;;8.13;;
74551;SDS011;63025;55.472;38.432;2024-03-29T09:22:05;15.60;;;7.30;;
74551;SDS011;63025;55.472;38.432;2024-03-29T09:24:31;13.05;;;7.53;;
74551;SDS011;63025;55.472;38.432;2024-03-29T09:26:59;13.13;;;6.78;;
74551;SDS011;63025;55.472;38.432;2024-03-29T09:29:26;11.88;;;7.07;;
74551;SDS011;63025;55.472;38.432;2024-03-29T09:31:52;13.27;;;7.28;;
74551;SDS011;63025;55.472;38.432;2024-03-29T09:34:17;12.38;;;6.88;;
74551;SDS011;63025;55.472;38.432;2024-03-29T09:36:43;34.25;;;8.30;;
74551;SDS011;63025;55.472;38.432;2024-03-29T09:39:09;14.65;;;8.30;;
74551;SDS011;63025;55.472;38.432;2024-03-29T09:41:35;16.65;;;7.80;;
74551;SDS011;63025;55.472;38.432;2024-03-29T09:44:03;16.60;;;8.38;;
74551;SDS011;63025;55.472;38.432;2024-03-29T09:46:32;14.45;;;8.13;;
74551;SDS011;63025;55.472;38.432;2024-03-29T09:48:59;16.40;;;7.82;;
74551;SDS011;63025;55.472;38.432;2024-03-29T09:51:27;16.27;;;8.35;;
74551;SDS011;63025;55.472;38.432;2024-03-29T09:53:55;14.40;;;7.82;;
74551;SDS011;63025;55.472;38.432;2024-03-29T09:56:22;22.38;;;8.63;;
74551;SDS011;63025;55.472;38.432;2024-03-29T09:58:51;16.63;;;8.55;;
74551;SDS011;63025;55.472;38.432;2024-03-29T10:01:17;13.73;;;7.75;;
74551;SDS011;63025;55.472;38.432;2024-03-29T10:03:44;17.20;;;8.43;;
74551;SDS011;63025;55.472;38.432;2024-03-29T10:06:13;15.80;;;7.50;;
74551;SDS011;63025;55.472;38.432;2024-03-29T10:08:40;16.20;;;7.75;;
74551;SDS011;63025;55.472;38.432;2024-03-29T10:11:06;17.38;;;8.27;;
74551;SDS011;63025;55.472;38.432;2024-03-29T10:13:32;14.65;;;8.38;;
74551;SDS011;63025;55.472;38.432;2024-03-29T10:16:00;17.63;;;7.60;;
74551;SDS011;63025;55.472;38.432;2024-03-29T10:18:28;18.90;;;8.13;;
74551;SDS011;63025;55.472;38.432;2024-03-29T10:20:59;17.77;;;8.32;;
74551;SDS011;63025;55.472;38.432;2024-03-29T10:23:27;13.75;;;7.93;;
74551;SDS011;63025;55.472;38.432;2024-03-29T10:25:53;15.27;;;8.73;;
74551;SDS011;63025;55.472;38.432;2024-03-29T10:28:19;14.80;;;8.05;;
74551;SDS011;63025;55.472;38.432;2024-03-29T10:30:45;19.10;;;9.35;;
74551;SDS011;63025;55.472;38.432;2024-03-29T10:33:12;17.55;;;8.02;;
74551;SDS011;63025;55.472;38.432;2024-03-29T10:35:41;13.15;;;7.78;;
74551;SDS011;63025;55.472;38.432;2024-03-29T10:38:09;14.13;;;8.18;;
74551;SDS011;63025;55.472;38.432;2024-03-29T10:40:38;17.00;;;8.15;;
74551;SDS011;63025;55.472;38.432;2024-03-29T10:43:09;14.40;;;7.82;;
74551;SDS011;63025;55.472;38.432;2024-03-29T10:45:38;15.30;;;8.70;;
74551;SDS011;63025;55.472;38.432;2024-03-29T10:48:04;13.05;;;8.23;;
74551;SDS011;63025;55.472;38.432;2024-03-29T10:50:36;14.50;;;8.15;;
74551;SDS011;63025;55.472;38.432;2024-03-29T10:53:05;20.45;;;7.93;;
74551;SDS011;63025;55.472;38.432;2024-03-29T10:55:34;17.08;;;8.40;;
74551;SDS011;63025;55.472;38.432;2024-03-29T10:58:01;17.75;;;8.00;;
74551;SDS011;63025;55.472;38.432;2024-03-29T11:00:28;14.38;;;7.90;;
74551;SDS011;63025;55.472;38.432;2024-03-29T11:05:46;14.20;;;7.75;;
74551;SDS011;63025;55.472;38.432;2024-03-29T11:08:17;15.10;;;8.20;;
74551;SDS011;63025;55.472;38.432;2024-03-29T11:10:47;15.93;;;8.70;;
74551;SDS011;63025;55.472;38.432;2024-03-29T11:13:21;16.08;;;8.77;;
74551;SDS011;63025;55.472;38.432;2024-03-29T11:15:49;13.80;;;8.45;;
74551;SDS011;63025;55.472;38.432;2024-03-29T11:18:16;12.63;;;7.47;;
74551;SDS011;63025;55.472;38.432;2024-03-29T11:20:47;15.27;;;8.63;;
74551;SDS011;63025;55.472;38.432;2024-03-29T11:23:18;14.50;;;8.02;;
74551;SDS011;63025;55.472;38.432;2024-03-29T11:25:48;16.95;;;8.98;;
74551;SDS011;63025;55.472;38.432;2024-03-29T11:28:31;13.30;;;8.07;;
74551;SDS011;63025;55.472;38.432;2024-03-29T11:31:05;14.75;;;7.60;;
74551;SDS011;63025;55.472;38.432;2024-03-29T11:33:43;17.80;;;8.32;;
74551;SDS011;63025;55.472;38.432;2024-03-29T11:36:17;18.23;;;9.18;;
74551;SDS011;63025;55.472;38.432;2024-03-29T11:38:56;13.10;;;8.55;;
74551;SDS011;63025;55.472;38.432;2024-03-29T11:41:23;15.57;;;7.72;;
74551;SDS011;63025;55.472;38.432;2024-03-29T11:43:53;14.20;;;8.40;;
74551;SDS011;63025;55.472;38.432;2024-03-29T11:46:20;16.02;;;8.07;;
74551;SDS011;63025;55.472;38.432;2024-03-29T11:48:46;13.02;;;8.45;;
74551;SDS011;63025;55.472;38.432;2024-03-29T11:51:15;11.35;;;7.68;;
74551;SDS011;63025;55.472;38.432;2024-03-29T11:53:44;14.57;;;9.00;;
74551;SDS011;63025;55.472;38.432;2024-03-29T11:56:10;14.73;;;8.73;;
74551;SDS011;63025;55.472;38.432;2024-03-29T11:58:39;15.55;;;8.40;;
74551;SDS011;63025;55.472;38.432;2024-03-29T12:01:06;13.63;;;8.50;;
74551;SDS011;63025;55.472;38.432;2024-03-29T12:03:39;15.00;;;8.50;;
74551;SDS011;63025;55.472;38.432;2024-03-29T12:06:07;14.18;;;8.52;;
74551;SDS011;63025;55.472;38.432;2024-03-29T12:08:34;13.90;;;8.57;;
74551;SDS011;63025;55.472;38.432;2024-03-29T12:11:02;16.27;;;8.48;;
74551;SDS011;63025;55.472;38.432;2024-03-29T12:13:29;13.05;;;7.90;;
74551;SDS011;63025;55.472;38.432;2024-03-29T12:15:55;13.30;;;8.48;;
74551;SDS011;63025;55.472;38.432;2024-03-29T12:18:22;14.93;;;8.60;;
74551;SDS011;63025;55.472;38.432;2024-03-29T12:20:49;13.55;;;8.38;;
74551;SDS011;63025;55.472;38.432;2024-03-29T12:23:17;14.77;;;9.02;;
74551;SDS011;63025;55.472;38.432;2024-03-29T12:25:43;14.18;;;8.63;;
74551;SDS011;63025;55.472;38.432;2024-03-29T12:28:10;15.10;;;8.77;;
74551;SDS011;63025;55.472;38.432;2024-03-29T12:30:37;16.55;;;8.68;;
74551;SDS011;63025;55.472;38.432;2024-03-29T12:35:43;14.30;;;8.52;;
74551;SDS011;63025;55.472;38.432;2024-03-29T12:38:11;15.73;;;9.55;;
74551;SDS011;63025;55.472;38.432;2024-03-29T12:40:41;14.95;;;9.45;;
74551;SDS011;63025;55.472;38.432;2024-03-29T12:43:09;13.40;;;8.63;;
74551;SDS011;63025;55.472;38.432;2024-03-29T12:45:36;15.05;;;8.90;;
74551;SDS011;63025;55.472;38.432;2024-03-29T12:48:13;13.13;;;9.20;;
74551;SDS011;63025;55.472;38.432;2024-03-29T12:50:41;14.65;;;9.05;;
74551;SDS011;63025;55.472;38.432;2024-03-29T12:53:08;17.33;;;8.65;;
74551;SDS011;63025;55.472;38.432;2024-03-29T12:55:36;14.95;;;9.43;;
74551;SDS011;63025;55.472;38.432;2024-03-29T12:58:07;14.80;;;9.35;;
74551;SDS011;63025;55.472;38.432;2024-03-29T13:00:37;17.88;;;9.80;;
74551;SDS011;63025;55.472;38.432;2024-03-29T13:03:04;16.13;;;9.68;;
74551;SDS011;63025;55.472;38.432;2024-03-29T13:05:30;17.10;;;10.30;;
74551;SDS011;63025;55.472;38.432;2024-03-29T13:08:03;12.43;;;9.77;;
74551;SDS011;63025;55.472;38.432;2024-03-29T13:10:39;16.75;;;9.98;;
74551;SDS011;63025;55.472;38.432;2024-03-29T13:13:20;20.85;;;9.88;;
74551;SDS011;63025;55.472;38.432;2024-03-29T13:15:46;17.65;;;10.23;;
74551;SDS011;63025;55.472;38.432;2024-03-29T13:18:12;16.83;;;10.18;;
74551;SDS011;63025;55.472;38.432;2024-03-29T13:20:42;17.13;;;10.40;;
74551;SDS011;63025;55.472;38.432;2024-03-29T13:23:08;16.98;;;9.82;;
74551;SDS011;63025;55.472;38.432;2024-03-29T13:25:35;19.95;;;10.60;;
74551;SDS011;63025;55.472;38.432;2024-03-29T13:28:00;23.90;;;10.38;;
74551;SDS011;63025;55.472;38.432;2024-03-29T13:30:27;18.73;;;10.02;;
74551;SDS011;63025;55.472;38.432;2024-03-29T13:32:53;17.85;;;10.23;;
74551;SDS011;63025;55.472;38.432;2024-03-29T13:35:19;16.30;;;9.95;;
74551;SDS011;63025;55.472;38.432;2024-03-29T13:37:49;17.40;;;9.98;;
74551;SDS011;63025;55.472;38.432;2024-03-29T13:40:17;23.60;;;10.68;;
74551;SDS011;63025;55.472;38.432;2024-03-29T13:42:47;19.30;;;10.32;;
74551;SDS011;63025;55.472;38.432;2024-03-29T13:45:14;18.42;;;10.02;;
74551;SDS011;63025;55.472;38.432;2024-03-29T13:47:41;20.83;;;10.07;;
74551;SDS011;63025;55.472;38.432;2024-03-29T13:50:09;21.00;;;10.57;;
74551;SDS011;63025;55.472;38.432;2024-03-29T13:52:36;17.17;;;10.52;;
74551;SDS011;63025;55.472;38.432;2024-03-29T13:55:03;20.88;;;10.57;;
74551;SDS011;63025;55.472;38.432;2024-03-29T13:57:31;20.70;;;11.43;;
74551;SDS011;63025;55.472;38.432;2024-03-29T13:59:58;19.55;;;10.90;;
74551;SDS011;63025;55.472;38.432;2024-03-29T14:02:24;17.13;;;11.18;;
74551;SDS011;63025;55.472;38.432;2024-03-29T14:04:53;18.42;;;11.07;;
74551;SDS011;63025;55.472;38.432;2024-03-29T14:07:19;21.35;;;11.23;;
74551;SDS011;63025;55.472;38.432;2024-03-29T14:09:46;18.00;;;10.70;;
74551;SDS011;63025;55.472;38.432;2024-03-29T14:12:13;17.27;;;10.82;;
74551;SDS011;63025;55.472;38.432;2024-03-29T14:14:39;19.13;;;10.50;;
74551;SDS011;63025;55.472;38.432;2024-03-29T14:17:09;17.40;;;10.98;;
74551;SDS011;63025;55.472;38.432;2024-03-29T14:19:35;18.75;;;10.85;;
74551;SDS011;63025;55.472;38.432;2024-03-29T14:22:02;21.55;;;11.50;;
74551;SDS011;63025;55.472;38.432;2024-03-29T14:24:29;22.95;;;12.00;;
74551;SDS011;63025;55.472;38.432;2024-03-29T14:26:56;20.08;;;10.85;;